sensor_id;sensor_type;location;lat;lon;timestamp;temperature;humidity
11569;DHT22;5840;46.894;15.542;2024-03-22T00:00:11;11.30;99.90
11569;DHT22;5840;46.894;15.542;2024-03-22T00:02:37;11.30;99.90
11569;DHT22;5840;46.894;15.542;2024-03-22T00:05:04;11.20;99.90
11569;DHT22;5840;46.894;15.542;2024-03-22T00:14:59;11.30;99.90
11569;DHT22;5840;46.894;15.542;2024-03-22T00:17:26;11.30;99.90
11569;DHT22;5840;46.894;15.542;2024-03-22T00:19:53;11.30;99.90
11569;DHT22;5840;46.894;15.542;2024-03-22T00:22:19;11.30;99.90
11569;DHT22;5840;46.894;15.542;2024-03-22T00:24:45;11.30;99.90
11569;DHT22;5840;46.894;15.542;2024-03-22T00:27:11;11.20;99.90
11569;DHT22;5840;46.894;15.542;2024-03-22T00:29:38;11.20;99.90
11569;DHT22;5840;46.894;15.542;2024-03-22T00:32:05;11.20;99.90
11569;DHT22;5840;46.894;15.542;2024-03-22T00:42:02;11.10;99.90
11569;DHT22;5840;46.894;15.542;2024-03-22T00:44:28;11.10;99.90
11569;DHT22;5840;46.894;15.542;2024-03-22T00:46:54;11.10;99.90
11569;DHT22;5840;46.894;15.542;2024-03-22T00:49:21;11.10;99.90
11569;DHT22;5840;46.894;15.542;2024-03-22T00:51:46;11.10;99.90
11569;DHT22;5840;46.894;15.542;2024-03-22T00:54:14;11.10;99.90
11569;DHT22;5840;46.894;15.542;2024-03-22T00:56:39;11.10;99.90
11569;DHT22;5840;46.894;15.542;2024-03-22T00:59:07;11.10;99.90
11569;DHT22;5840;46.894;15.542;2024-03-22T01:06:36;11.10;99.90
11569;DHT22;5840;46.894;15.542;2024-03-22T01:09:02;11.00;99.90
11569;DHT22;5840;46.894;15.542;2024-03-22T01:11:29;11.00;99.90
11569;DHT22;5840;46.894;15.542;2024-03-22T01:13:55;11.00;99.90
11569;DHT22;5840;46.894;15.542;2024-03-22T01:16:21;11.00;99.90
11569;DHT22;5840;46.894;15.542;2024-03-22T01:18:47;11.00;99.90
11569;DHT22;5840;46.894;15.542;2024-03-22T01:21:14;10.90;99.90
11569;DHT22;5840;46.894;15.542;2024-03-22T01:23:41;10.90;99.90
11569;DHT22;5840;46.894;15.542;2024-03-22T01:33:31;10.80;99.90
11569;DHT22;5840;46.894;15.542;2024-03-22T01:35:57;10.80;99.90
11569;DHT22;5840;46.894;15.542;2024-03-22T01:38:23;10.80;99.90
11569;DHT22;5840;46.894;15.542;2024-03-22T01:40:49;10.80;99.90
11569;DHT22;5840;46.894;15.542;2024-03-22T01:43:15;10.70;99.90
11569;DHT22;5840;46.894;15.542;2024-03-22T01:45:41;10.70;99.90
11569;DHT22;5840;46.894;15.542;2024-03-22T01:48:07;10.70;99.90
11569;DHT22;5840;46.894;15.542;2024-03-22T01:50:35;10.70;99.90
11569;DHT22;5840;46.894;15.542;2024-03-22T01:58:04;10.70;99.90
11569;DHT22;5840;46.894;15.542;2024-03-22T02:00:31;10.60;99.90
11569;DHT22;5840;46.894;15.542;2024-03-22T02:02:57;10.70;99.90
11569;DHT22;5840;46.894;15.542;2024-03-22T02:05:23;10.60;99.90
11569;DHT22;5840;46.894;15.542;2024-03-22T02:07:50;10.60;99.90
11569;DHT22;5840;46.894;15.542;2024-03-22T02:10:18;10.60;99.90
11569;DHT22;5840;46.894;15.542;2024-03-22T02:12:44;10.50;99.90
11569;DHT22;5840;46.894;15.542;2024-03-22T02:15:11;10.50;99.90
11569;DHT22;5840;46.894;15.542;2024-03-22T02:22:41;10.40;99.90
11569;DHT22;5840;46.894;15.542;2024-03-22T02:25:08;10.40;99.90
11569;DHT22;5840;46.894;15.542;2024-03-22T02:27:34;10.30;99.90
11569;DHT22;5840;46.894;15.542;2024-03-22T02:30:00;10.30;99.90
11569;DHT22;5840;46.894;15.542;2024-03-22T02:32:28;10.30;99.90
11569;DHT22;5840;46.894;15.542;2024-03-22T02:34:54;10.30;99.90
11569;DHT22;5840;46.894;15.542;2024-03-22T02:37:20;10.20;99.90
11569;DHT22;5840;46.894;15.542;2024-03-22T02:39:46;10.20;99.90
11569;DHT22;5840;46.894;15.542;2024-03-22T02:47:15;10.20;99.90
11569;DHT22;5840;46.894;15.542;2024-03-22T02:49:41;10.20;99.90
11569;DHT22;5840;46.894;15.542;2024-03-22T02:52:07;10.20;99.90
11569;DHT22;5840;46.894;15.542;2024-03-22T02:54:34;10.20;99.90
11569;DHT22;5840;46.894;15.542;2024-03-22T02:56:59;10.20;99.90
11569;DHT22;5840;46.894;15.542;2024-03-22T02:59:27;10.20;99.90
11569;DHT22;5840;46.894;15.542;2024-03-22T03:01:53;10.20;99.90
11569;DHT22;5840;46.894;15.542;2024-03-22T03:04:20;10.10;99.90
11569;DHT22;5840;46.894;15.542;2024-03-22T03:14:10;10.10;99.90
11569;DHT22;5840;46.894;15.542;2024-03-22T03:16:36;10.10;99.90
11569;DHT22;5840;46.894;15.542;2024-03-22T03:19:02;10.10;99.90
11569;DHT22;5840;46.894;15.542;2024-03-22T03:21:28;10.00;99.90
11569;DHT22;5840;46.894;15.542;2024-03-22T03:23:54;9.90;99.90
11569;DHT22;5840;46.894;15.542;2024-03-22T03:26:20;9.80;99.90
11569;DHT22;5840;46.894;15.542;2024-03-22T03:28:46;9.80;99.90
11569;DHT22;5840;46.894;15.542;2024-03-22T03:31:13;9.70;99.90
11569;DHT22;5840;46.894;15.542;2024-03-22T03:41:08;9.60;99.90
11569;DHT22;5840;46.894;15.542;2024-03-22T03:43:34;9.60;99.90
11569;DHT22;5840;46.894;15.542;2024-03-22T03:46:00;9.50;99.90
11569;DHT22;5840;46.894;15.542;2024-03-22T03:48:26;9.50;99.90
11569;DHT22;5840;46.894;15.542;2024-03-22T03:50:53;9.40;99.90
11569;DHT22;5840;46.894;15.542;2024-03-22T03:53:20;9.40;99.90
11569;DHT22;5840;46.894;15.542;2024-03-22T03:55:46;9.40;99.90
11569;DHT22;5840;46.894;15.542;2024-03-22T03:58:13;9.40;99.90
11569;DHT22;5840;46.894;15.542;2024-03-22T04:08:08;9.40;99.90
11569;DHT22;5840;46.894;15.542;2024-03-22T04:10:34;9.40;99.90
11569;DHT22;5840;46.894;15.542;2024-03-22T04:13:00;9.40;99.90
11569;DHT22;5840;46.894;15.542;2024-03-22T04:15:26;9.30;99.90
11569;DHT22;5840;46.894;15.542;2024-03-22T04:17:52;9.30;99.90
11569;DHT22;5840;46.894;15.542;2024-03-22T04:20:18;9.20;99.90
11569;DHT22;5840;46.894;15.542;2024-03-22T04:22:44;9.20;99.90
11569;DHT22;5840;46.894;15.542;2024-03-22T04:25:12;9.20;99.90
11569;DHT22;5840;46.894;15.542;2024-03-22T04:35:02;9.00;99.90
11569;DHT22;5840;46.894;15.542;2024-03-22T04:37:29;8.90;99.90
11569;DHT22;5840;46.894;15.542;2024-03-22T04:39:55;8.90;99.90
11569;DHT22;5840;46.894;15.542;2024-03-22T04:42:21;8.80;99.90
11569;DHT22;5840;46.894;15.542;2024-03-22T04:44:48;8.80;99.90
11569;DHT22;5840;46.894;15.542;2024-03-22T04:47:14;8.80;99.90
11569;DHT22;5840;46.894;15.542;2024-03-22T04:49:40;8.70;99.90
11569;DHT22;5840;46.894;15.542;2024-03-22T04:52:07;8.70;99.90
11569;DHT22;5840;46.894;15.542;2024-03-22T04:59:36;8.60;99.90
11569;DHT22;5840;46.894;15.542;2024-03-22T05:02:02;8.50;99.90
11569;DHT22;5840;46.894;15.542;2024-03-22T05:04:28;8.50;99.90
11569;DHT22;5840;46.894;15.542;2024-03-22T05:06:54;8.40;99.90
11569;DHT22;5840;46.894;15.542;2024-03-22T05:09:20;8.40;99.90
11569;DHT22;5840;46.894;15.542;2024-03-22T05:11:46;8.40;99.90
11569;DHT22;5840;46.894;15.542;2024-03-22T05:14:15;8.30;99.90
11569;DHT22;5840;46.894;15.542;2024-03-22T05:16:42;8.40;99.90
11569;DHT22;5840;46.894;15.542;2024-03-22T05:26:37;8.40;99.90
11569;DHT22;5840;46.894;15.542;2024-03-22T05:29:03;8.40;99.90
11569;DHT22;5840;46.894;15.542;2024-03-22T05:31:30;8.50;99.90
11569;DHT22;5840;46.894;15.542;2024-03-22T05:33:57;8.50;99.90
11569;DHT22;5840;46.894;15.542;2024-03-22T05:36:23;8.50;99.90
11569;DHT22;5840;46.894;15.542;2024-03-22T05:38:49;8.50;99.90
11569;DHT22;5840;46.894;15.542;2024-03-22T05:41:15;8.50;99.90
11569;DHT22;5840;46.894;15.542;2024-03-22T05:43:42;8.50;99.90
11569;DHT22;5840;46.894;15.542;2024-03-22T05:51:11;8.70;99.90
11569;DHT22;5840;46.894;15.542;2024-03-22T05:53:37;8.80;99.90
11569;DHT22;5840;46.894;15.542;2024-03-22T05:56:04;8.80;99.90
11569;DHT22;5840;46.894;15.542;2024-03-22T05:58:30;8.80;99.90
11569;DHT22;5840;46.894;15.542;2024-03-22T06:00:56;8.90;99.90
11569;DHT22;5840;46.894;15.542;2024-03-22T06:03:23;8.90;99.90
11569;DHT22;5840;46.894;15.542;2024-03-22T06:05:49;9.00;99.90
11569;DHT22;5840;46.894;15.542;2024-03-22T06:08:21;9.00;99.90
11569;DHT22;5840;46.894;15.542;2024-03-22T06:18:16;9.10;99.90
11569;DHT22;5840;46.894;15.542;2024-03-22T06:20:42;9.30;99.90
11569;DHT22;5840;46.894;15.542;2024-03-22T06:23:09;9.40;99.90
11569;DHT22;5840;46.894;15.542;2024-03-22T06:25:36;9.50;99.90
11569;DHT22;5840;46.894;15.542;2024-03-22T06:28:02;9.60;99.90
11569;DHT22;5840;46.894;15.542;2024-03-22T06:30:28;9.70;99.90
11569;DHT22;5840;46.894;15.542;2024-03-22T06:32:54;9.80;99.90
11569;DHT22;5840;46.894;15.542;2024-03-22T06:35:21;9.80;99.90
11569;DHT22;5840;46.894;15.542;2024-03-22T06:45:11;10.10;99.90
11569;DHT22;5840;46.894;15.542;2024-03-22T06:47:37;10.30;99.90
11569;DHT22;5840;46.894;15.542;2024-03-22T06:50:04;10.40;99.90
11569;DHT22;5840;46.894;15.542;2024-03-22T06:52:30;10.50;99.90
11569;DHT22;5840;46.894;15.542;2024-03-22T06:54:56;10.60;99.90
11569;DHT22;5840;46.894;15.542;2024-03-22T06:57:23;10.70;99.90
11569;DHT22;5840;46.894;15.542;2024-03-22T06:59:49;10.80;99.90
11569;DHT22;5840;46.894;15.542;2024-03-22T07:02:16;10.90;99.90
11569;DHT22;5840;46.894;15.542;2024-03-22T07:12:06;11.30;99.90
11569;DHT22;5840;46.894;15.542;2024-03-22T07:14:32;11.50;99.90
11569;DHT22;5840;46.894;15.542;2024-03-22T07:16:59;11.70;99.90
11569;DHT22;5840;46.894;15.542;2024-03-22T07:19:25;11.90;99.90
11569;DHT22;5840;46.894;15.542;2024-03-22T07:21:51;12.00;99.90
11569;DHT22;5840;46.894;15.542;2024-03-22T07:24:17;12.10;99.90
11569;DHT22;5840;46.894;15.542;2024-03-22T07:26:43;12.30;99.90
11569;DHT22;5840;46.894;15.542;2024-03-22T07:29:10;12.40;99.90
11569;DHT22;5840;46.894;15.542;2024-03-22T07:36:39;12.70;99.90
11569;DHT22;5840;46.894;15.542;2024-03-22T07:39:06;13.00;99.90
11569;DHT22;5840;46.894;15.542;2024-03-22T07:41:32;13.20;99.90
11569;DHT22;5840;46.894;15.542;2024-03-22T07:43:59;13.30;99.90
11569;DHT22;5840;46.894;15.542;2024-03-22T07:46:25;13.50;99.90
11569;DHT22;5840;46.894;15.542;2024-03-22T07:48:52;13.60;99.90
11569;DHT22;5840;46.894;15.542;2024-03-22T07:51:18;13.80;99.90
11569;DHT22;5840;46.894;15.542;2024-03-22T07:53:45;13.90;99.80
11569;DHT22;5840;46.894;15.542;2024-03-22T08:03:39;15.00;99.90
11569;DHT22;5840;46.894;15.542;2024-03-22T08:06:05;15.90;99.90
11569;DHT22;5840;46.894;15.542;2024-03-22T08:08:31;16.30;99.30
11569;DHT22;5840;46.894;15.542;2024-03-22T08:10:57;16.60;99.40
11569;DHT22;5840;46.894;15.542;2024-03-22T08:13:23;16.90;98.80
11569;DHT22;5840;46.894;15.542;2024-03-22T08:15:50;17.00;96.40
11569;DHT22;5840;46.894;15.542;2024-03-22T08:18:16;17.20;96.00
11569;DHT22;5840;46.894;15.542;2024-03-22T08:20:43;17.40;96.30
11569;DHT22;5840;46.894;15.542;2024-03-22T08:28:12;17.90;94.80
11569;DHT22;5840;46.894;15.542;2024-03-22T08:30:39;18.20;93.20
11569;DHT22;5840;46.894;15.542;2024-03-22T08:33:05;18.30;93.00
11569;DHT22;5840;46.894;15.542;2024-03-22T08:35:31;18.50;92.70
11569;DHT22;5840;46.894;15.542;2024-03-22T08:37:57;18.40;93.40
11569;DHT22;5840;46.894;15.542;2024-03-22T08:40:24;18.50;93.10
11569;DHT22;5840;46.894;15.542;2024-03-22T08:42:50;18.70;93.50
11569;DHT22;5840;46.894;15.542;2024-03-22T08:45:17;18.80;91.30
11569;DHT22;5840;46.894;15.542;2024-03-22T08:52:46;18.70;90.20
11569;DHT22;5840;46.894;15.542;2024-03-22T08:55:12;18.90;90.70
11569;DHT22;5840;46.894;15.542;2024-03-22T08:57:38;19.00;87.80
11569;DHT22;5840;46.894;15.542;2024-03-22T09:00:05;18.90;90.20
11569;DHT22;5840;46.894;15.542;2024-03-22T09:02:33;19.30;91.60
11569;DHT22;5840;46.894;15.542;2024-03-22T09:05:00;19.40;88.60
11569;DHT22;5840;46.894;15.542;2024-03-22T09:07:26;19.60;88.60
11569;DHT22;5840;46.894;15.542;2024-03-22T09:09:53;19.70;87.10
11569;DHT22;5840;46.894;15.542;2024-03-22T09:17:22;20.10;87.00
11569;DHT22;5840;46.894;15.542;2024-03-22T09:19:48;20.50;80.90
11569;DHT22;5840;46.894;15.542;2024-03-22T09:22:14;20.40;79.70
11569;DHT22;5840;46.894;15.542;2024-03-22T09:24:41;20.50;80.80
11569;DHT22;5840;46.894;15.542;2024-03-22T09:27:07;20.70;84.10
11569;DHT22;5840;46.894;15.542;2024-03-22T09:29:35;20.70;79.40
11569;DHT22;5840;46.894;15.542;2024-03-22T09:32:01;20.70;78.50
11569;DHT22;5840;46.894;15.542;2024-03-22T09:34:28;20.90;77.60
11569;DHT22;5840;46.894;15.542;2024-03-22T09:44:23;21.10;80.60
11569;DHT22;5840;46.894;15.542;2024-03-22T09:46:52;21.10;72.20
11569;DHT22;5840;46.894;15.542;2024-03-22T09:49:18;21.00;78.90
11569;DHT22;5840;46.894;15.542;2024-03-22T09:51:46;20.90;74.40
11569;DHT22;5840;46.894;15.542;2024-03-22T09:54:12;20.70;74.90
11569;DHT22;5840;46.894;15.542;2024-03-22T09:56:39;20.60;75.30
11569;DHT22;5840;46.894;15.542;2024-03-22T09:59:05;20.60;80.90
11569;DHT22;5840;46.894;15.542;2024-03-22T10:01:33;20.80;78.80
11569;DHT22;5840;46.894;15.542;2024-03-22T10:11:26;21.50;72.40
11569;DHT22;5840;46.894;15.542;2024-03-22T10:13:52;21.90;75.00
11569;DHT22;5840;46.894;15.542;2024-03-22T10:16:20;21.80;69.30
11569;DHT22;5840;46.894;15.542;2024-03-22T10:18:47;21.90;71.80
11569;DHT22;5840;46.894;15.542;2024-03-22T10:21:17;21.70;72.60
11569;DHT22;5840;46.894;15.542;2024-03-22T10:23:44;21.80;74.40
11569;DHT22;5840;46.894;15.542;2024-03-22T10:26:12;21.90;70.30
11569;DHT22;5840;46.894;15.542;2024-03-22T10:36:29;22.20;67.30
11569;DHT22;5840;46.894;15.542;2024-03-22T10:38:58;22.40;66.80
11569;DHT22;5840;46.894;15.542;2024-03-22T10:41:24;22.50;65.80
11569;DHT22;5840;46.894;15.542;2024-03-22T10:43:50;22.50;65.30
11569;DHT22;5840;46.894;15.542;2024-03-22T10:46:20;22.50;64.20
11569;DHT22;5840;46.894;15.542;2024-03-22T10:48:46;22.50;67.00
11569;DHT22;5840;46.894;15.542;2024-03-22T10:51:14;22.60;67.40
11569;DHT22;5840;46.894;15.542;2024-03-22T10:53:43;22.60;62.80
11569;DHT22;5840;46.894;15.542;2024-03-22T11:03:39;22.30;63.20
11569;DHT22;5840;46.894;15.542;2024-03-22T11:06:07;22.20;64.90
11569;DHT22;5840;46.894;15.542;2024-03-22T11:08:33;22.40;65.70
11569;DHT22;5840;46.894;15.542;2024-03-22T11:11:10;22.50;67.80
11569;DHT22;5840;46.894;15.542;2024-03-22T11:13:36;22.60;63.70
11569;DHT22;5840;46.894;15.542;2024-03-22T11:16:02;22.70;60.30
11569;DHT22;5840;46.894;15.542;2024-03-22T11:18:28;22.90;68.80
11569;DHT22;5840;46.894;15.542;2024-03-22T11:24:47;23.10;62.60
11569;DHT22;5840;46.894;15.542;2024-03-22T11:27:13;22.90;63.90
11569;DHT22;5840;46.894;15.542;2024-03-22T11:29:39;22.70;60.30
11569;DHT22;5840;46.894;15.542;2024-03-22T11:32:07;22.70;61.00
11569;DHT22;5840;46.894;15.542;2024-03-22T11:34:34;23.00;67.00
11569;DHT22;5840;46.894;15.542;2024-03-22T11:37:01;23.30;59.10
11569;DHT22;5840;46.894;15.542;2024-03-22T11:39:26;23.60;58.30
11569;DHT22;5840;46.894;15.542;2024-03-22T11:41:54;23.80;61.60
11569;DHT22;5840;46.894;15.542;2024-03-22T11:51:45;23.70;59.80
11569;DHT22;5840;46.894;15.542;2024-03-22T11:54:11;22.90;62.50
11569;DHT22;5840;46.894;15.542;2024-03-22T11:56:37;22.70;60.80
11569;DHT22;5840;46.894;15.542;2024-03-22T11:59:06;22.80;58.40
11569;DHT22;5840;46.894;15.542;2024-03-22T12:01:33;22.80;60.50
11569;DHT22;5840;46.894;15.542;2024-03-22T12:03:59;22.60;58.20
11569;DHT22;5840;46.894;15.542;2024-03-22T12:06:25;22.80;65.30
11569;DHT22;5840;46.894;15.542;2024-03-22T12:08:52;22.70;59.90
11569;DHT22;5840;46.894;15.542;2024-03-22T12:18:46;21.90;60.50
11569;DHT22;5840;46.894;15.542;2024-03-22T12:21:12;22.00;62.40
11569;DHT22;5840;46.894;15.542;2024-03-22T12:23:38;22.10;61.30
11569;DHT22;5840;46.894;15.542;2024-03-22T12:26:04;22.10;64.10
11569;DHT22;5840;46.894;15.542;2024-03-22T12:28:30;22.00;61.80
11569;DHT22;5840;46.894;15.542;2024-03-22T12:30:56;21.90;61.00
11569;DHT22;5840;46.894;15.542;2024-03-22T12:33:22;21.80;60.20
11569;DHT22;5840;46.894;15.542;2024-03-22T12:35:50;22.10;61.20
11569;DHT22;5840;46.894;15.542;2024-03-22T12:45:39;22.80;57.70
11569;DHT22;5840;46.894;15.542;2024-03-22T12:48:06;23.30;55.70
11569;DHT22;5840;46.894;15.542;2024-03-22T12:50:32;23.10;56.10
11569;DHT22;5840;46.894;15.542;2024-03-22T12:52:59;23.10;60.20
11569;DHT22;5840;46.894;15.542;2024-03-22T12:55:25;23.10;61.40
11569;DHT22;5840;46.894;15.542;2024-03-22T12:57:53;23.10;57.10
11569;DHT22;5840;46.894;15.542;2024-03-22T13:00:20;23.10;58.20
11569;DHT22;5840;46.894;15.542;2024-03-22T13:02:47;23.10;56.90
11569;DHT22;5840;46.894;15.542;2024-03-22T13:12:42;23.40;56.50
11569;DHT22;5840;46.894;15.542;2024-03-22T13:15:08;23.20;61.00
11569;DHT22;5840;46.894;15.542;2024-03-22T13:17:35;22.90;60.50
11569;DHT22;5840;46.894;15.542;2024-03-22T13:20:01;22.40;60.40
11569;DHT22;5840;46.894;15.542;2024-03-22T13:22:33;22.00;62.70
11569;DHT22;5840;46.894;15.542;2024-03-22T13:24:59;21.80;59.10
11569;DHT22;5840;46.894;15.542;2024-03-22T13:27:25;21.60;62.60
11569;DHT22;5840;46.894;15.542;2024-03-22T13:29:53;21.40;62.10
11569;DHT22;5840;46.894;15.542;2024-03-22T13:39:49;21.60;63.50
11569;DHT22;5840;46.894;15.542;2024-03-22T13:42:15;21.20;63.00
11569;DHT22;5840;46.894;15.542;2024-03-22T13:44:41;21.10;62.10
11569;DHT22;5840;46.894;15.542;2024-03-22T13:47:07;21.10;64.60
11569;DHT22;5840;46.894;15.542;2024-03-22T13:49:34;21.10;63.20
11569;DHT22;5840;46.894;15.542;2024-03-22T13:52:01;21.10;64.30
11569;DHT22;5840;46.894;15.542;2024-03-22T13:54:27;21.30;64.30
11569;DHT22;5840;46.894;15.542;2024-03-22T13:56:53;21.30;61.60
11569;DHT22;5840;46.894;15.542;2024-03-22T14:06:48;21.70;62.80
11569;DHT22;5840;46.894;15.542;2024-03-22T14:09:15;21.40;59.10
11569;DHT22;5840;46.894;15.542;2024-03-22T14:11:41;21.10;62.60
11569;DHT22;5840;46.894;15.542;2024-03-22T14:14:09;20.90;60.50
11569;DHT22;5840;46.894;15.542;2024-03-22T14:16:37;20.90;63.90
11569;DHT22;5840;46.894;15.542;2024-03-22T14:19:03;20.90;62.00
11569;DHT22;5840;46.894;15.542;2024-03-22T14:21:29;20.80;65.10
11569;DHT22;5840;46.894;15.542;2024-03-22T14:23:56;20.80;67.30
11569;DHT22;5840;46.894;15.542;2024-03-22T14:31:26;21.10;64.60
11569;DHT22;5840;46.894;15.542;2024-03-22T14:33:52;21.20;65.10
11569;DHT22;5840;46.894;15.542;2024-03-22T14:36:18;21.20;66.60
11569;DHT22;5840;46.894;15.542;2024-03-22T14:38:44;21.10;68.10
11569;DHT22;5840;46.894;15.542;2024-03-22T14:41:11;20.90;65.50
11569;DHT22;5840;46.894;15.542;2024-03-22T14:43:37;20.70;67.60
11569;DHT22;5840;46.894;15.542;2024-03-22T14:46:03;20.60;64.90
11569;DHT22;5840;46.894;15.542;2024-03-22T14:48:30;20.60;64.90
11569;DHT22;5840;46.894;15.542;2024-03-22T14:56:01;20.40;68.20
11569;DHT22;5840;46.894;15.542;2024-03-22T14:58:30;20.30;65.60
11569;DHT22;5840;46.894;15.542;2024-03-22T15:00:57;20.20;66.90
11569;DHT22;5840;46.894;15.542;2024-03-22T15:03:24;20.20;66.40
11569;DHT22;5840;46.894;15.542;2024-03-22T15:05:50;20.00;69.00
11569;DHT22;5840;46.894;15.542;2024-03-22T15:08:17;19.90;67.50
11569;DHT22;5840;46.894;15.542;2024-03-22T15:10:43;19.60;65.50
11569;DHT22;5840;46.894;15.542;2024-03-22T15:13:11;19.60;66.60
11569;DHT22;5840;46.894;15.542;2024-03-22T15:23:06;19.50;68.80
11569;DHT22;5840;46.894;15.542;2024-03-22T15:25:32;19.10;70.80
11569;DHT22;5840;46.894;15.542;2024-03-22T15:27:58;19.00;71.20
11569;DHT22;5840;46.894;15.542;2024-03-22T15:30:24;18.80;73.10
11569;DHT22;5840;46.894;15.542;2024-03-22T15:32:50;18.60;72.80
11569;DHT22;5840;46.894;15.542;2024-03-22T15:35:18;18.50;73.10
11569;DHT22;5840;46.894;15.542;2024-03-22T15:37:45;18.40;73.60
11569;DHT22;5840;46.894;15.542;2024-03-22T15:40:13;18.40;72.70
11569;DHT22;5840;46.894;15.542;2024-03-22T15:50:08;18.20;74.30
11569;DHT22;5840;46.894;15.542;2024-03-22T15:52:35;18.10;75.70
11569;DHT22;5840;46.894;15.542;2024-03-22T15:55:01;18.00;74.70
11569;DHT22;5840;46.894;15.542;2024-03-22T15:57:28;18.00;73.90
11569;DHT22;5840;46.894;15.542;2024-03-22T15:59:54;18.00;74.00
11569;DHT22;5840;46.894;15.542;2024-03-22T16:02:21;18.00;75.10
11569;DHT22;5840;46.894;15.542;2024-03-22T16:04:47;17.90;75.50
11569;DHT22;5840;46.894;15.542;2024-03-22T16:12:12;17.90;75.30
11569;DHT22;5840;46.894;15.542;2024-03-22T16:14:39;18.00;74.30
11569;DHT22;5840;46.894;15.542;2024-03-22T16:17:06;18.10;75.30
11569;DHT22;5840;46.894;15.542;2024-03-22T16:19:32;18.10;75.80
11569;DHT22;5840;46.894;15.542;2024-03-22T16:21:58;18.00;77.20
11569;DHT22;5840;46.894;15.542;2024-03-22T16:24:24;17.90;76.50
11569;DHT22;5840;46.894;15.542;2024-03-22T16:26:50;17.80;78.80
11569;DHT22;5840;46.894;15.542;2024-03-22T16:29:17;17.70;78.10
11569;DHT22;5840;46.894;15.542;2024-03-22T16:36:48;17.50;80.50
11569;DHT22;5840;46.894;15.542;2024-03-22T16:39:14;17.30;81.60
11569;DHT22;5840;46.894;15.542;2024-03-22T16:41:40;17.20;81.50
11569;DHT22;5840;46.894;15.542;2024-03-22T16:44:06;17.20;81.20
11569;DHT22;5840;46.894;15.542;2024-03-22T16:46:33;17.10;81.60
11569;DHT22;5840;46.894;15.542;2024-03-22T16:48:59;17.10;81.70
11569;DHT22;5840;46.894;15.542;2024-03-22T16:51:25;17.00;81.90
11569;DHT22;5840;46.894;15.542;2024-03-22T16:53:52;16.90;81.10
11569;DHT22;5840;46.894;15.542;2024-03-22T17:03:43;16.80;80.60
11569;DHT22;5840;46.894;15.542;2024-03-22T17:06:09;16.70;81.20
11569;DHT22;5840;46.894;15.542;2024-03-22T17:08:35;16.70;81.50
11569;DHT22;5840;46.894;15.542;2024-03-22T17:11:01;16.60;82.00
11569;DHT22;5840;46.894;15.542;2024-03-22T17:13:27;16.60;82.00
11569;DHT22;5840;46.894;15.542;2024-03-22T17:15:53;16.50;81.50
11569;DHT22;5840;46.894;15.542;2024-03-22T17:18:19;16.50;81.40
11569;DHT22;5840;46.894;15.542;2024-03-22T17:20:46;16.50;81.50
11569;DHT22;5840;46.894;15.542;2024-03-22T17:28:15;16.40;82.00
11569;DHT22;5840;46.894;15.542;2024-03-22T17:30:44;16.30;81.70
11569;DHT22;5840;46.894;15.542;2024-03-22T17:33:10;16.20;81.50
11569;DHT22;5840;46.894;15.542;2024-03-22T17:35:37;16.20;81.20
11569;DHT22;5840;46.894;15.542;2024-03-22T17:38:04;16.20;80.80
11569;DHT22;5840;46.894;15.542;2024-03-22T17:40:33;16.20;80.30
11569;DHT22;5840;46.894;15.542;2024-03-22T17:43:00;16.10;80.20
11569;DHT22;5840;46.894;15.542;2024-03-22T17:45:27;16.10;80.20
11569;DHT22;5840;46.894;15.542;2024-03-22T17:55:21;16.00;79.70
11569;DHT22;5840;46.894;15.542;2024-03-22T17:57:48;15.90;79.80
11569;DHT22;5840;46.894;15.542;2024-03-22T18:00:14;15.90;79.60
11569;DHT22;5840;46.894;15.542;2024-03-22T18:02:40;15.80;79.70
11569;DHT22;5840;46.894;15.542;2024-03-22T18:05:07;15.80;79.70
11569;DHT22;5840;46.894;15.542;2024-03-22T18:07:33;15.70;79.60
11569;DHT22;5840;46.894;15.542;2024-03-22T18:09:59;15.70;79.90
11569;DHT22;5840;46.894;15.542;2024-03-22T18:12:26;15.60;80.10
11569;DHT22;5840;46.894;15.542;2024-03-22T18:19:56;15.50;80.80
11569;DHT22;5840;46.894;15.542;2024-03-22T18:22:22;15.40;81.70
11569;DHT22;5840;46.894;15.542;2024-03-22T18:24:48;15.40;82.30
11569;DHT22;5840;46.894;15.542;2024-03-22T18:27:14;15.30;83.00
11569;DHT22;5840;46.894;15.542;2024-03-22T18:29:40;15.30;83.30
11569;DHT22;5840;46.894;15.542;2024-03-22T18:32:06;15.20;83.80
11569;DHT22;5840;46.894;15.542;2024-03-22T18:34:32;15.20;84.40
11569;DHT22;5840;46.894;15.542;2024-03-22T18:37:00;15.10;84.80
11569;DHT22;5840;46.894;15.542;2024-03-22T18:46:58;15.00;85.10
11569;DHT22;5840;46.894;15.542;2024-03-22T18:49:24;14.90;85.60
11569;DHT22;5840;46.894;15.542;2024-03-22T18:51:50;14.80;86.00
11569;DHT22;5840;46.894;15.542;2024-03-22T18:54:17;14.70;86.20
11569;DHT22;5840;46.894;15.542;2024-03-22T18:56:42;14.70;86.40
11569;DHT22;5840;46.894;15.542;2024-03-22T18:59:09;14.70;86.70
11569;DHT22;5840;46.894;15.542;2024-03-22T19:01:35;14.70;86.80
11569;DHT22;5840;46.894;15.542;2024-03-22T19:04:02;14.60;87.00
11569;DHT22;5840;46.894;15.542;2024-03-22T19:13:57;14.60;87.70
11569;DHT22;5840;46.894;15.542;2024-03-22T19:16:23;14.60;87.90
11569;DHT22;5840;46.894;15.542;2024-03-22T19:18:49;14.60;88.00
11569;DHT22;5840;46.894;15.542;2024-03-22T19:21:16;14.60;88.10
11569;DHT22;5840;46.894;15.542;2024-03-22T19:23:42;14.50;88.20
11569;DHT22;5840;46.894;15.542;2024-03-22T19:26:08;14.50;88.30
11569;DHT22;5840;46.894;15.542;2024-03-22T19:28:34;14.50;88.40
11569;DHT22;5840;46.894;15.542;2024-03-22T19:31:03;14.50;88.40
11569;DHT22;5840;46.894;15.542;2024-03-22T19:40:57;14.40;89.10
11569;DHT22;5840;46.894;15.542;2024-03-22T19:43:23;14.40;89.80
11569;DHT22;5840;46.894;15.542;2024-03-22T19:45:50;14.30;89.70
11569;DHT22;5840;46.894;15.542;2024-03-22T19:48:23;14.30;89.60
11569;DHT22;5840;46.894;15.542;2024-03-22T19:50:49;14.30;89.90
11569;DHT22;5840;46.894;15.542;2024-03-22T19:53:15;14.20;90.00
11569;DHT22;5840;46.894;15.542;2024-03-22T19:55:41;14.20;90.10
11569;DHT22;5840;46.894;15.542;2024-03-22T19:58:08;14.10;90.20
11569;DHT22;5840;46.894;15.542;2024-03-22T20:05:37;13.90;90.30
11569;DHT22;5840;46.894;15.542;2024-03-22T20:08:04;13.80;90.40
11569;DHT22;5840;46.894;15.542;2024-03-22T20:10:30;13.80;90.50
11569;DHT22;5840;46.894;15.542;2024-03-22T20:12:57;13.70;90.50
11569;DHT22;5840;46.894;15.542;2024-03-22T20:15:23;13.70;90.70
11569;DHT22;5840;46.894;15.542;2024-03-22T20:17:52;13.60;90.90
11569;DHT22;5840;46.894;15.542;2024-03-22T20:20:18;13.50;91.00
11569;DHT22;5840;46.894;15.542;2024-03-22T20:22:46;13.40;91.30
11569;DHT22;5840;46.894;15.542;2024-03-22T20:32:42;13.20;91.70
11569;DHT22;5840;46.894;15.542;2024-03-22T20:35:08;13.00;91.90
11569;DHT22;5840;46.894;15.542;2024-03-22T20:37:34;13.00;92.10
